sensor_id;sensor_type;location;lat;lon;timestamp;P1;durP1;ratioP1;P2;durP2;ratioP2
26163;SDS011;13914;48.178;11.716;2022-07-11T00:02:36;16.15;;;1.25;;
26163;SDS011;13914;48.178;11.716;2022-07-11T00:05:04;5.95;;;1.50;;
26163;SDS011;13914;48.178;11.716;2022-07-11T00:09:56;9.55;;;0.93;;
26163;SDS011;13914;48.178;11.716;2022-07-11T00:12:22;2.70;;;0.82;;
26163;SDS011;13914;48.178;11.716;2022-07-11T00:14:52;5.82;;;1.10;;
26163;SDS011;13914;48.178;11.716;2022-07-11T00:17:21;8.30;;;1.05;;
26163;SDS011;13914;48.178;11.716;2022-07-11T00:19:48;11.23;;;1.38;;
26163;SDS011;13914;48.178;11.716;2022-07-11T00:22:14;6.70;;;1.20;;
26163;SDS011;13914;48.178;11.716;2022-07-11T00:24:40;7.80;;;0.95;;
26163;SDS011;13914;48.178;11.716;2022-07-11T00:27:06;11.43;;;1.52;;
26163;SDS011;13914;48.178;11.716;2022-07-11T00:29:32;5.15;;;1.25;;
26163;SDS011;13914;48.178;11.716;2022-07-11T00:31:58;6.68;;;1.65;;
26163;SDS011;13914;48.178;11.716;2022-07-11T00:34:24;5.72;;;1.23;;
26163;SDS011;13914;48.178;11.716;2022-07-11T00:36:50;5.40;;;1.10;;
26163;SDS011;13914;48.178;11.716;2022-07-11T00:39:16;3.67;;;1.20;;
26163;SDS011;13914;48.178;11.716;2022-07-11T00:41:43;6.50;;;1.05;;
26163;SDS011;13914;48.178;11.716;2022-07-11T00:44:08;3.22;;;1.20;;
26163;SDS011;13914;48.178;11.716;2022-07-11T00:46:34;3.70;;;0.98;;
26163;SDS011;13914;48.178;11.716;2022-07-11T00:49:00;2.22;;;1.27;;
26163;SDS011;13914;48.178;11.716;2022-07-11T00:51:28;7.50;;;1.25;;
26163;SDS011;13914;48.178;11.716;2022-07-11T00:53:56;3.88;;;1.40;;
26163;SDS011;13914;48.178;11.716;2022-07-11T00:56:26;6.75;;;1.45;;
26163;SDS011;13914;48.178;11.716;2022-07-11T00:58:54;2.80;;;1.02;;
26163;SDS011;13914;48.178;11.716;2022-07-11T01:01:23;3.50;;;1.30;;
26163;SDS011;13914;48.178;11.716;2022-07-11T01:03:49;3.70;;;1.02;;
26163;SDS011;13914;48.178;11.716;2022-07-11T01:06:15;4.75;;;1.17;;
26163;SDS011;13914;48.178;11.716;2022-07-11T01:08:40;2.08;;;1.13;;
26163;SDS011;13914;48.178;11.716;2022-07-11T01:11:07;8.55;;;1.08;;
26163;SDS011;13914;48.178;11.716;2022-07-11T01:13:37;3.50;;;1.10;;
26163;SDS011;13914;48.178;11.716;2022-07-11T01:18:44;5.75;;;1.00;;
26163;SDS011;13914;48.178;11.716;2022-07-11T01:21:23;3.78;;;1.15;;
26163;SDS011;13914;48.178;11.716;2022-07-11T01:23:54;4.88;;;0.95;;
26163;SDS011;13914;48.178;11.716;2022-07-11T01:26:23;2.00;;;0.80;;
26163;SDS011;13914;48.178;11.716;2022-07-11T01:28:50;7.35;;;1.35;;
26163;SDS011;13914;48.178;11.716;2022-07-11T01:33:42;5.35;;;1.05;;
26163;SDS011;13914;48.178;11.716;2022-07-11T01:36:08;3.83;;;0.90;;
26163;SDS011;13914;48.178;11.716;2022-07-11T01:38:34;2.83;;;0.77;;
26163;SDS011;13914;48.178;11.716;2022-07-11T01:41:01;2.47;;;1.13;;
26163;SDS011;13914;48.178;11.716;2022-07-11T01:43:27;2.13;;;0.80;;
26163;SDS011;13914;48.178;11.716;2022-07-11T01:45:54;2.20;;;1.00;;
26163;SDS011;13914;48.178;11.716;2022-07-11T01:48:21;4.20;;;1.95;;
26163;SDS011;13914;48.178;11.716;2022-07-11T01:50:47;2.10;;;0.82;;
26163;SDS011;13914;48.178;11.716;2022-07-11T01:58:06;2.47;;;0.93;;
26163;SDS011;13914;48.178;11.716;2022-07-11T02:00:31;2.00;;;0.75;;
26163;SDS011;13914;48.178;11.716;2022-07-11T02:02:57;2.20;;;1.02;;
26163;SDS011;13914;48.178;11.716;2022-07-11T02:05:23;5.15;;;0.90;;
26163;SDS011;13914;48.178;11.716;2022-07-11T02:07:49;2.38;;;0.65;;
26163;SDS011;13914;48.178;11.716;2022-07-11T02:10:33;3.05;;;1.05;;
26163;SDS011;13914;48.178;11.716;2022-07-11T02:12:59;1.60;;;0.77;;
26163;SDS011;13914;48.178;11.716;2022-07-11T02:15:28;1.77;;;1.00;;
26163;SDS011;13914;48.178;11.716;2022-07-11T02:17:55;4.57;;;1.17;;
26163;SDS011;13914;48.178;11.716;2022-07-11T02:20:22;3.33;;;0.75;;
26163;SDS011;13914;48.178;11.716;2022-07-11T02:22:49;4.72;;;0.95;;
26163;SDS011;13914;48.178;11.716;2022-07-11T02:25:15;2.42;;;1.00;;
26163;SDS011;13914;48.178;11.716;2022-07-11T02:27:42;4.68;;;0.90;;
26163;SDS011;13914;48.178;11.716;2022-07-11T02:30:08;5.85;;;0.73;;
26163;SDS011;13914;48.178;11.716;2022-07-11T02:32:35;4.55;;;1.08;;
26163;SDS011;13914;48.178;11.716;2022-07-11T02:35:02;3.03;;;1.00;;
26163;SDS011;13914;48.178;11.716;2022-07-11T02:37:29;3.00;;;1.00;;
26163;SDS011;13914;48.178;11.716;2022-07-11T02:39:55;5.97;;;1.17;;
26163;SDS011;13914;48.178;11.716;2022-07-11T02:42:21;3.20;;;0.80;;
26163;SDS011;13914;48.178;11.716;2022-07-11T02:44:46;1.57;;;0.63;;
26163;SDS011;13914;48.178;11.716;2022-07-11T02:47:12;1.15;;;0.70;;
26163;SDS011;13914;48.178;11.716;2022-07-11T02:49:41;8.82;;;1.00;;
26163;SDS011;13914;48.178;11.716;2022-07-11T02:52:08;2.80;;;0.93;;
26163;SDS011;13914;48.178;11.716;2022-07-11T02:57:00;2.42;;;0.93;;
26163;SDS011;13914;48.178;11.716;2022-07-11T02:59:26;2.67;;;0.80;;
26163;SDS011;13914;48.178;11.716;2022-07-11T03:01:52;2.35;;;0.90;;
26163;SDS011;13914;48.178;11.716;2022-07-11T03:06:44;4.20;;;0.70;;
26163;SDS011;13914;48.178;11.716;2022-07-11T03:09:10;2.20;;;0.80;;
26163;SDS011;13914;48.178;11.716;2022-07-11T03:11:36;3.95;;;0.63;;
26163;SDS011;13914;48.178;11.716;2022-07-11T03:14:02;2.97;;;0.82;;
26163;SDS011;13914;48.178;11.716;2022-07-11T03:16:29;5.90;;;0.75;;
26163;SDS011;13914;48.178;11.716;2022-07-11T03:18:58;4.88;;;0.80;;
26163;SDS011;13914;48.178;11.716;2022-07-11T03:21:24;4.55;;;0.80;;
26163;SDS011;13914;48.178;11.716;2022-07-11T03:23:51;6.30;;;0.80;;
26163;SDS011;13914;48.178;11.716;2022-07-11T03:26:17;1.98;;;0.52;;
26163;SDS011;13914;48.178;11.716;2022-07-11T03:28:43;1.35;;;0.70;;
26163;SDS011;13914;48.178;11.716;2022-07-11T03:31:09;2.35;;;1.00;;
26163;SDS011;13914;48.178;11.716;2022-07-11T03:33:36;8.73;;;1.30;;
26163;SDS011;13914;48.178;11.716;2022-07-11T03:36:02;2.45;;;0.70;;
26163;SDS011;13914;48.178;11.716;2022-07-11T03:38:28;5.35;;;0.80;;
26163;SDS011;13914;48.178;11.716;2022-07-11T03:40:54;9.27;;;1.10;;
26163;SDS011;13914;48.178;11.716;2022-07-11T03:45:47;6.95;;;1.05;;
26163;SDS011;13914;48.178;11.716;2022-07-11T03:48:13;1.40;;;0.90;;
26163;SDS011;13914;48.178;11.716;2022-07-11T03:50:39;2.13;;;0.93;;
26163;SDS011;13914;48.178;11.716;2022-07-11T03:53:05;5.10;;;1.00;;
26163;SDS011;13914;48.178;11.716;2022-07-11T03:55:31;2.22;;;0.70;;
26163;SDS011;13914;48.178;11.716;2022-07-11T04:00:23;5.75;;;0.85;;
26163;SDS011;13914;48.178;11.716;2022-07-11T04:02:49;6.10;;;1.17;;
26163;SDS011;13914;48.178;11.716;2022-07-11T04:05:15;3.33;;;0.88;;
26163;SDS011;13914;48.178;11.716;2022-07-11T04:07:41;4.97;;;0.80;;
26163;SDS011;13914;48.178;11.716;2022-07-11T04:10:08;3.03;;;1.30;;
26163;SDS011;13914;48.178;11.716;2022-07-11T04:12:34;1.67;;;0.80;;
26163;SDS011;13914;48.178;11.716;2022-07-11T04:15:00;6.13;;;1.10;;
26163;SDS011;13914;48.178;11.716;2022-07-11T04:19:53;3.88;;;0.70;;
26163;SDS011;13914;48.178;11.716;2022-07-11T04:22:19;3.92;;;0.95;;
26163;SDS011;13914;48.178;11.716;2022-07-11T04:24:45;2.90;;;0.60;;
26163;SDS011;13914;48.178;11.716;2022-07-11T04:27:11;3.60;;;1.00;;
26163;SDS011;13914;48.178;11.716;2022-07-11T04:29:37;6.87;;;0.87;;
26163;SDS011;13914;48.178;11.716;2022-07-11T04:32:02;2.55;;;0.75;;
26163;SDS011;13914;48.178;11.716;2022-07-11T04:34:29;6.80;;;1.08;;
26163;SDS011;13914;48.178;11.716;2022-07-11T04:36:54;3.63;;;0.70;;
26163;SDS011;13914;48.178;11.716;2022-07-11T04:39:20;4.60;;;0.83;;
26163;SDS011;13914;48.178;11.716;2022-07-11T04:41:46;1.42;;;0.65;;
26163;SDS011;13914;48.178;11.716;2022-07-11T04:44:12;4.30;;;1.10;;
26163;SDS011;13914;48.178;11.716;2022-07-11T04:46:38;4.72;;;0.70;;
26163;SDS011;13914;48.178;11.716;2022-07-11T04:49:04;2.28;;;0.88;;
26163;SDS011;13914;48.178;11.716;2022-07-11T04:51:29;4.13;;;0.93;;
26163;SDS011;13914;48.178;11.716;2022-07-11T04:53:55;3.83;;;0.77;;
26163;SDS011;13914;48.178;11.716;2022-07-11T04:56:21;6.23;;;0.80;;
26163;SDS011;13914;48.178;11.716;2022-07-11T04:58:47;3.20;;;1.05;;
26163;SDS011;13914;48.178;11.716;2022-07-11T05:01:12;5.65;;;0.95;;
26163;SDS011;13914;48.178;11.716;2022-07-11T05:03:38;2.80;;;0.68;;
26163;SDS011;13914;48.178;11.716;2022-07-11T05:06:04;1.33;;;0.60;;
26163;SDS011;13914;48.178;11.716;2022-07-11T05:08:31;2.95;;;0.60;;
26163;SDS011;13914;48.178;11.716;2022-07-11T05:11:01;3.45;;;0.98;;
26163;SDS011;13914;48.178;11.716;2022-07-11T05:13:29;4.38;;;0.95;;
26163;SDS011;13914;48.178;11.716;2022-07-11T05:15:55;3.08;;;0.65;;
26163;SDS011;13914;48.178;11.716;2022-07-11T05:18:21;3.65;;;0.90;;
26163;SDS011;13914;48.178;11.716;2022-07-11T05:20:47;4.00;;;1.15;;
26163;SDS011;13914;48.178;11.716;2022-07-11T05:23:14;3.83;;;1.05;;
26163;SDS011;13914;48.178;11.716;2022-07-11T05:25:40;1.73;;;0.80;;
26163;SDS011;13914;48.178;11.716;2022-07-11T05:28:06;9.55;;;1.33;;
26163;SDS011;13914;48.178;11.716;2022-07-11T05:30:32;3.13;;;0.60;;
26163;SDS011;13914;48.178;11.716;2022-07-11T05:32:58;5.40;;;0.70;;
26163;SDS011;13914;48.178;11.716;2022-07-11T05:35:23;6.28;;;0.80;;
26163;SDS011;13914;48.178;11.716;2022-07-11T05:37:50;3.10;;;0.80;;
26163;SDS011;13914;48.178;11.716;2022-07-11T05:40:16;5.25;;;1.05;;
26163;SDS011;13914;48.178;11.716;2022-07-11T05:42:42;4.90;;;1.00;;
26163;SDS011;13914;48.178;11.716;2022-07-11T05:45:08;3.83;;;0.80;;
26163;SDS011;13914;48.178;11.716;2022-07-11T05:47:34;3.40;;;0.75;;
26163;SDS011;13914;48.178;11.716;2022-07-11T05:50:00;4.43;;;0.77;;
26163;SDS011;13914;48.178;11.716;2022-07-11T05:52:26;4.50;;;0.80;;
26163;SDS011;13914;48.178;11.716;2022-07-11T05:54:52;4.10;;;0.57;;
26163;SDS011;13914;48.178;11.716;2022-07-11T05:57:18;2.57;;;0.73;;
26163;SDS011;13914;48.178;11.716;2022-07-11T05:59:43;1.63;;;0.60;;
26163;SDS011;13914;48.178;11.716;2022-07-11T06:02:11;5.72;;;1.10;;
26163;SDS011;13914;48.178;11.716;2022-07-11T06:04:37;4.05;;;0.90;;
26163;SDS011;13914;48.178;11.716;2022-07-11T06:07:03;4.90;;;1.00;;
26163;SDS011;13914;48.178;11.716;2022-07-11T06:11:55;2.45;;;0.75;;
26163;SDS011;13914;48.178;11.716;2022-07-11T06:14:21;6.45;;;1.20;;
26163;SDS011;13914;48.178;11.716;2022-07-11T06:16:49;3.47;;;0.90;;
26163;SDS011;13914;48.178;11.716;2022-07-11T06:19:15;4.85;;;0.98;;
26163;SDS011;13914;48.178;11.716;2022-07-11T06:21:40;4.95;;;1.33;;
26163;SDS011;13914;48.178;11.716;2022-07-11T06:24:06;4.85;;;1.08;;
26163;SDS011;13914;48.178;11.716;2022-07-11T06:26:32;4.57;;;1.17;;
26163;SDS011;13914;48.178;11.716;2022-07-11T06:28:58;3.80;;;0.90;;
26163;SDS011;13914;48.178;11.716;2022-07-11T06:31:24;7.15;;;1.33;;
26163;SDS011;13914;48.178;11.716;2022-07-11T06:33:50;5.38;;;0.90;;
26163;SDS011;13914;48.178;11.716;2022-07-11T06:36:20;6.45;;;0.90;;
26163;SDS011;13914;48.178;11.716;2022-07-11T06:38:49;4.10;;;1.05;;
26163;SDS011;13914;48.178;11.716;2022-07-11T06:41:17;9.35;;;1.10;;
26163;SDS011;13914;48.178;11.716;2022-07-11T06:43:45;3.10;;;1.00;;
26163;SDS011;13914;48.178;11.716;2022-07-11T06:46:13;6.97;;;0.88;;
26163;SDS011;13914;48.178;11.716;2022-07-11T06:48:40;4.88;;;0.90;;
26163;SDS011;13914;48.178;11.716;2022-07-11T06:53:35;3.63;;;0.98;;
26163;SDS011;13914;48.178;11.716;2022-07-11T06:56:01;3.90;;;1.00;;
26163;SDS011;13914;48.178;11.716;2022-07-11T06:58:27;2.73;;;0.73;;
26163;SDS011;13914;48.178;11.716;2022-07-11T07:01:04;5.05;;;0.75;;
26163;SDS011;13914;48.178;11.716;2022-07-11T07:03:31;4.90;;;0.80;;
26163;SDS011;13914;48.178;11.716;2022-07-11T07:05:59;1.75;;;0.70;;
26163;SDS011;13914;48.178;11.716;2022-07-11T07:08:25;4.82;;;0.98;;
26163;SDS011;13914;48.178;11.716;2022-07-11T07:10:54;8.10;;;1.42;;
26163;SDS011;13914;48.178;11.716;2022-07-11T07:13:20;4.20;;;0.90;;
26163;SDS011;13914;48.178;11.716;2022-07-11T07:15:50;3.97;;;0.93;;
26163;SDS011;13914;48.178;11.716;2022-07-11T07:18:18;5.25;;;0.80;;
26163;SDS011;13914;48.178;11.716;2022-07-11T07:20:43;4.28;;;1.33;;
26163;SDS011;13914;48.178;11.716;2022-07-11T07:23:09;3.15;;;0.70;;
26163;SDS011;13914;48.178;11.716;2022-07-11T07:25:35;6.25;;;0.90;;
26163;SDS011;13914;48.178;11.716;2022-07-11T07:28:02;4.93;;;0.60;;
26163;SDS011;13914;48.178;11.716;2022-07-11T07:30:30;1.95;;;0.70;;
26163;SDS011;13914;48.178;11.716;2022-07-11T07:32:56;4.85;;;0.90;;
26163;SDS011;13914;48.178;11.716;2022-07-11T07:35:22;4.57;;;1.02;;
26163;SDS011;13914;48.178;11.716;2022-07-11T07:37:48;5.22;;;0.90;;
26163;SDS011;13914;48.178;11.716;2022-07-11T07:40:14;5.95;;;0.65;;
26163;SDS011;13914;48.178;11.716;2022-07-11T07:42:40;7.38;;;0.90;;
26163;SDS011;13914;48.178;11.716;2022-07-11T07:45:06;3.22;;;0.70;;
26163;SDS011;13914;48.178;11.716;2022-07-11T07:47:32;5.00;;;1.13;;
26163;SDS011;13914;48.178;11.716;2022-07-11T07:49:59;4.75;;;0.73;;
26163;SDS011;13914;48.178;11.716;2022-07-11T07:52:25;5.72;;;0.68;;
26163;SDS011;13914;48.178;11.716;2022-07-11T07:54:51;2.85;;;0.90;;
26163;SDS011;13914;48.178;11.716;2022-07-11T07:57:17;5.03;;;0.88;;
26163;SDS011;13914;48.178;11.716;2022-07-11T07:59:42;4.53;;;0.73;;
26163;SDS011;13914;48.178;11.716;2022-07-11T08:02:08;9.25;;;0.90;;
26163;SDS011;13914;48.178;11.716;2022-07-11T08:04:34;5.30;;;0.70;;
26163;SDS011;13914;48.178;11.716;2022-07-11T08:07:00;1.55;;;0.50;;
26163;SDS011;13914;48.178;11.716;2022-07-11T08:09:25;2.28;;;0.60;;
26163;SDS011;13914;48.178;11.716;2022-07-11T08:11:51;2.42;;;0.93;;
26163;SDS011;13914;48.178;11.716;2022-07-11T08:14:17;2.67;;;0.93;;
26163;SDS011;13914;48.178;11.716;2022-07-11T08:16:43;2.72;;;0.55;;
26163;SDS011;13914;48.178;11.716;2022-07-11T08:19:09;3.17;;;0.85;;
26163;SDS011;13914;48.178;11.716;2022-07-11T08:21:36;2.20;;;0.52;;
26163;SDS011;13914;48.178;11.716;2022-07-11T08:24:02;2.83;;;0.85;;
26163;SDS011;13914;48.178;11.716;2022-07-11T08:26:29;5.50;;;0.50;;
26163;SDS011;13914;48.178;11.716;2022-07-11T08:28:55;5.90;;;0.82;;
26163;SDS011;13914;48.178;11.716;2022-07-11T08:31:22;2.92;;;0.60;;
26163;SDS011;13914;48.178;11.716;2022-07-11T08:33:48;4.30;;;0.82;;
26163;SDS011;13914;48.178;11.716;2022-07-11T08:36:15;3.95;;;0.40;;
26163;SDS011;13914;48.178;11.716;2022-07-11T08:38:41;2.50;;;0.57;;
26163;SDS011;13914;48.178;11.716;2022-07-11T08:41:11;2.75;;;0.55;;
26163;SDS011;13914;48.178;11.716;2022-07-11T08:43:38;4.40;;;0.50;;
26163;SDS011;13914;48.178;11.716;2022-07-11T08:46:08;3.08;;;0.50;;
26163;SDS011;13914;48.178;11.716;2022-07-11T08:48:35;9.00;;;0.70;;
26163;SDS011;13914;48.178;11.716;2022-07-11T08:51:08;5.45;;;0.57;;
26163;SDS011;13914;48.178;11.716;2022-07-11T08:53:38;1.83;;;0.40;;
26163;SDS011;13914;48.178;11.716;2022-07-11T08:56:10;2.85;;;0.57;;
26163;SDS011;13914;48.178;11.716;2022-07-11T08:58:41;0.98;;;0.40;;
26163;SDS011;13914;48.178;11.716;2022-07-11T09:01:12;2.80;;;0.55;;
26163;SDS011;13914;48.178;11.716;2022-07-11T09:03:41;3.65;;;0.30;;
26163;SDS011;13914;48.178;11.716;2022-07-11T09:06:08;1.90;;;0.38;;
26163;SDS011;13914;48.178;11.716;2022-07-11T09:08:36;1.45;;;0.50;;
26163;SDS011;13914;48.178;11.716;2022-07-11T09:11:03;0.85;;;0.30;;
26163;SDS011;13914;48.178;11.716;2022-07-11T09:13:30;4.60;;;0.60;;
26163;SDS011;13914;48.178;11.716;2022-07-11T09:16:06;2.85;;;0.35;;
26163;SDS011;13914;48.178;11.716;2022-07-11T09:18:40;2.85;;;0.43;;
26163;SDS011;13914;48.178;11.716;2022-07-11T09:21:07;1.85;;;0.20;;
26163;SDS011;13914;48.178;11.716;2022-07-11T09:24:04;1.77;;;0.40;;
26163;SDS011;13914;48.178;11.716;2022-07-11T09:26:50;0.68;;;0.20;;
26163;SDS011;13914;48.178;11.716;2022-07-11T09:29:17;0.68;;;0.20;;
26163;SDS011;13914;48.178;11.716;2022-07-11T09:31:47;0.88;;;0.40;;
26163;SDS011;13914;48.178;11.716;2022-07-11T09:34:17;2.30;;;0.30;;
26163;SDS011;13914;48.178;11.716;2022-07-11T09:36:48;0.30;;;0.15;;
26163;SDS011;13914;48.178;11.716;2022-07-11T09:39:20;3.72;;;0.20;;
26163;SDS011;13914;48.178;11.716;2022-07-11T09:41:49;0.38;;;0.13;;
26163;SDS011;13914;48.178;11.716;2022-07-11T09:46:54;0.47;;;0.15;;
26163;SDS011;13914;48.178;11.716;2022-07-11T09:49:31;1.48;;;0.20;;
26163;SDS011;13914;48.178;11.716;2022-07-11T09:52:10;2.10;;;0.30;;
26163;SDS011;13914;48.178;11.716;2022-07-11T09:54:57;1.20;;;0.25;;
26163;SDS011;13914;48.178;11.716;2022-07-11T09:57:32;0.95;;;0.20;;
26163;SDS011;13914;48.178;11.716;2022-07-11T10:00:00;0.80;;;0.17;;
26163;SDS011;13914;48.178;11.716;2022-07-11T10:02:33;0.55;;;0.15;;
26163;SDS011;13914;48.178;11.716;2022-07-11T10:04:59;0.20;;;0.10;;
26163;SDS011;13914;48.178;11.716;2022-07-11T10:07:27;0.25;;;0.05;;
26163;SDS011;13914;48.178;11.716;2022-07-11T10:09:53;1.40;;;0.20;;
26163;SDS011;13914;48.178;11.716;2022-07-11T10:12:20;0.85;;;0.20;;
26163;SDS011;13914;48.178;11.716;2022-07-11T10:14:47;0.68;;;0.13;;
26163;SDS011;13914;48.178;11.716;2022-07-11T10:17:17;1.45;;;0.40;;
26163;SDS011;13914;48.178;11.716;2022-07-11T10:19:53;2.05;;;0.32;;
26163;SDS011;13914;48.178;11.716;2022-07-11T10:28:31;0.85;;;0.20;;
26163;SDS011;13914;48.178;11.716;2022-07-11T10:31:19;1.42;;;0.17;;
26163;SDS011;13914;48.178;11.716;2022-07-11T10:36:32;1.58;;;0.10;;
26163;SDS011;13914;48.178;11.716;2022-07-11T10:39:33;0.47;;;0.20;;
26163;SDS011;13914;48.178;11.716;2022-07-11T10:41:58;1.15;;;0.10;;
26163;SDS011;13914;48.178;11.716;2022-07-11T10:44:46;0.40;;;0.13;;
26163;SDS011;13914;48.178;11.716;2022-07-11T10:53:10;1.02;;;0.00;;
26163;SDS011;13914;48.178;11.716;2022-07-11T10:55:53;1.83;;;0.35;;
26163;SDS011;13914;48.178;11.716;2022-07-11T10:59:18;0.45;;;0.20;;
26163;SDS011;13914;48.178;11.716;2022-07-11T11:02:03;2.65;;;0.10;;
26163;SDS011;13914;48.178;11.716;2022-07-11T11:04:48;1.55;;;0.13;;
26163;SDS011;13914;48.178;11.716;2022-07-11T11:07:28;3.08;;;0.20;;
26163;SDS011;13914;48.178;11.716;2022-07-11T11:09:55;0.70;;;0.10;;
26163;SDS011;13914;48.178;11.716;2022-07-11T11:15:52;0.65;;;0.10;;
26163;SDS011;13914;48.178;11.716;2022-07-11T11:23:32;0.30;;;0.10;;
26163;SDS011;13914;48.178;11.716;2022-07-11T11:26:07;0.20;;;0.15;;
26163;SDS011;13914;48.178;11.716;2022-07-11T11:29:09;0.90;;;0.20;;
26163;SDS011;13914;48.178;11.716;2022-07-11T11:31:35;0.75;;;0.10;;
26163;SDS011;13914;48.178;11.716;2022-07-11T11:34:02;0.35;;;0.03;;
26163;SDS011;13914;48.178;11.716;2022-07-11T11:36:30;0.65;;;0.20;;
26163;SDS011;13914;48.178;11.716;2022-07-11T11:38:56;2.38;;;0.20;;
26163;SDS011;13914;48.178;11.716;2022-07-11T11:43:49;2.70;;;0.30;;
26163;SDS011;13914;48.178;11.716;2022-07-11T11:46:16;0.85;;;0.10;;
26163;SDS011;13914;48.178;11.716;2022-07-11T11:48:41;2.30;;;0.60;;
26163;SDS011;13914;48.178;11.716;2022-07-11T11:51:15;1.73;;;0.32;;
26163;SDS011;13914;48.178;11.716;2022-07-11T11:53:47;0.93;;;0.40;;
26163;SDS011;13914;48.178;11.716;2022-07-11T11:56:15;2.08;;;0.22;;
26163;SDS011;13914;48.178;11.716;2022-07-11T11:58:48;1.67;;;0.30;;
26163;SDS011;13914;48.178;11.716;2022-07-11T12:01:19;2.45;;;0.40;;
26163;SDS011;13914;48.178;11.716;2022-07-11T12:03:57;0.90;;;0.30;;
26163;SDS011;13914;48.178;11.716;2022-07-11T12:06:26;0.57;;;0.22;;
26163;SDS011;13914;48.178;11.716;2022-07-11T12:09:05;1.42;;;0.40;;
26163;SDS011;13914;48.178;11.716;2022-07-11T12:11:37;1.23;;;0.35;;
26163;SDS011;13914;48.178;11.716;2022-07-11T12:14:05;1.25;;;0.40;;
26163;SDS011;13914;48.178;11.716;2022-07-11T12:16:34;2.10;;;0.32;;
26163;SDS011;13914;48.178;11.716;2022-07-11T12:19:07;1.23;;;0.40;;
26163;SDS011;13914;48.178;11.716;2022-07-11T12:21:41;0.73;;;0.30;;
26163;SDS011;13914;48.178;11.716;2022-07-11T12:24:17;1.25;;;0.43;;
26163;SDS011;13914;48.178;11.716;2022-07-11T12:26:45;1.40;;;0.40;;
26163;SDS011;13914;48.178;11.716;2022-07-11T12:29:15;0.82;;;0.47;;
26163;SDS011;13914;48.178;11.716;2022-07-11T12:31:57;0.40;;;0.20;;
26163;SDS011;13914;48.178;11.716;2022-07-11T12:39:34;1.95;;;0.50;;
26163;SDS011;13914;48.178;11.716;2022-07-11T12:44:59;0.65;;;0.32;;
26163;SDS011;13914;48.178;11.716;2022-07-11T12:47:38;0.77;;;0.30;;
26163;SDS011;13914;48.178;11.716;2022-07-11T12:50:12;0.73;;;0.17;;
26163;SDS011;13914;48.178;11.716;2022-07-11T12:52:52;3.33;;;1.00;;
26163;SDS011;13914;48.178;11.716;2022-07-11T12:55:30;1.08;;;0.40;;
26163;SDS011;13914;48.178;11.716;2022-07-11T13:00:35;0.60;;;0.32;;
26163;SDS011;13914;48.178;11.716;2022-07-11T13:03:34;1.10;;;0.30;;
26163;SDS011;13914;48.178;11.716;2022-07-11T13:06:01;1.67;;;0.50;;
26163;SDS011;13914;48.178;11.716;2022-07-11T13:08:29;2.45;;;0.40;;
26163;SDS011;13914;48.178;11.716;2022-07-11T13:11:14;1.10;;;0.22;;
26163;SDS011;13914;48.178;11.716;2022-07-11T13:13:45;4.85;;;0.40;;
26163;SDS011;13914;48.178;11.716;2022-07-11T13:16:13;4.35;;;0.50;;
26163;SDS011;13914;48.178;11.716;2022-07-11T13:18:40;1.15;;;0.32;;
26163;SDS011;13914;48.178;11.716;2022-07-11T13:21:06;6.55;;;0.50;;
26163;SDS011;13914;48.178;11.716;2022-07-11T13:23:35;1.95;;;0.40;;
26163;SDS011;13914;48.178;11.716;2022-07-11T13:26:02;2.38;;;0.70;;
26163;SDS011;13914;48.178;11.716;2022-07-11T13:28:30;2.20;;;0.40;;
26163;SDS011;13914;48.178;11.716;2022-07-11T13:30:59;1.10;;;0.43;;
26163;SDS011;13914;48.178;11.716;2022-07-11T13:33:25;1.52;;;0.47;;
26163;SDS011;13914;48.178;11.716;2022-07-11T13:38:17;3.15;;;0.30;;
26163;SDS011;13914;48.178;11.716;2022-07-11T13:40:45;6.47;;;0.50;;
26163;SDS011;13914;48.178;11.716;2022-07-11T13:43:11;3.67;;;0.38;;
26163;SDS011;13914;48.178;11.716;2022-07-11T13:45:39;1.27;;;0.40;;
26163;SDS011;13914;48.178;11.716;2022-07-11T13:50:31;1.08;;;0.57;;
26163;SDS011;13914;48.178;11.716;2022-07-11T13:52:57;2.55;;;0.93;;
26163;SDS011;13914;48.178;11.716;2022-07-11T13:57:53;3.35;;;0.70;;
26163;SDS011;13914;48.178;11.716;2022-07-11T14:00:24;0.63;;;0.30;;
26163;SDS011;13914;48.178;11.716;2022-07-11T14:02:53;0.80;;;0.30;;
26163;SDS011;13914;48.178;11.716;2022-07-11T14:05:19;0.95;;;0.30;;
26163;SDS011;13914;48.178;11.716;2022-07-11T14:07:46;1.05;;;0.38;;
26163;SDS011;13914;48.178;11.716;2022-07-11T14:10:12;2.33;;;0.40;;
26163;SDS011;13914;48.178;11.716;2022-07-11T14:12:39;0.25;;;0.20;;
26163;SDS011;13914;48.178;11.716;2022-07-11T14:15:06;0.60;;;0.30;;
26163;SDS011;13914;48.178;11.716;2022-07-11T14:17:33;2.03;;;0.28;;
26163;SDS011;13914;48.178;11.716;2022-07-11T14:20:00;0.77;;;0.40;;
26163;SDS011;13914;48.178;11.716;2022-07-11T14:22:26;0.70;;;0.30;;
26163;SDS011;13914;48.178;11.716;2022-07-11T14:24:52;5.60;;;0.30;;
26163;SDS011;13914;48.178;11.716;2022-07-11T14:27:18;0.98;;;0.30;;
26163;SDS011;13914;48.178;11.716;2022-07-11T14:29:45;0.35;;;0.20;;
26163;SDS011;13914;48.178;11.716;2022-07-11T14:32:14;3.08;;;0.38;;
26163;SDS011;13914;48.178;11.716;2022-07-11T14:34:40;0.57;;;0.30;;
26163;SDS011;13914;48.178;11.716;2022-07-11T14:37:10;0.57;;;0.20;;
26163;SDS011;13914;48.178;11.716;2022-07-11T14:39:36;0.40;;;0.22;;
26163;SDS011;13914;48.178;11.716;2022-07-11T14:42:02;1.08;;;0.32;;
26163;SDS011;13914;48.178;11.716;2022-07-11T14:44:28;0.70;;;0.30;;
26163;SDS011;13914;48.178;11.716;2022-07-11T14:46:54;0.73;;;0.30;;
26163;SDS011;13914;48.178;11.716;2022-07-11T14:49:20;0.75;;;0.40;;
26163;SDS011;13914;48.178;11.716;2022-07-11T14:51:46;2.70;;;0.40;;
26163;SDS011;13914;48.178;11.716;2022-07-11T14:54:11;3.65;;;0.30;;
26163;SDS011;13914;48.178;11.716;2022-07-11T14:56:38;5.13;;;0.30;;
26163;SDS011;13914;48.178;11.716;2022-07-11T14:59:04;2.97;;;0.30;;
26163;SDS011;13914;48.178;11.716;2022-07-11T15:01:31;1.38;;;0.38;;
26163;SDS011;13914;48.178;11.716;2022-07-11T15:03:57;1.00;;;0.20;;
26163;SDS011;13914;48.178;11.716;2022-07-11T15:09:09;1.55;;;0.30;;
26163;SDS011;13914;48.178;11.716;2022-07-11T15:11:54;1.23;;;0.30;;
26163;SDS011;13914;48.178;11.716;2022-07-11T15:14:38;1.83;;;0.50;;
26163;SDS011;13914;48.178;11.716;2022-07-11T15:17:04;0.95;;;0.40;;
26163;SDS011;13914;48.178;11.716;2022-07-11T15:19:30;0.43;;;0.28;;
26163;SDS011;13914;48.178;11.716;2022-07-11T15:21:56;0.75;;;0.20;;
26163;SDS011;13914;48.178;11.716;2022-07-11T15:24:21;1.77;;;0.40;;
26163;SDS011;13914;48.178;11.716;2022-07-11T15:26:47;1.45;;;0.30;;
26163;SDS011;13914;48.178;11.716;2022-07-11T15:29:13;1.27;;;0.60;;
26163;SDS011;13914;48.178;11.716;2022-07-11T15:34:05;0.65;;;0.40;;
26163;SDS011;13914;48.178;11.716;2022-07-11T15:36:31;0.98;;;0.50;;
26163;SDS011;13914;48.178;11.716;2022-07-11T15:38:57;2.05;;;0.50;;
26163;SDS011;13914;48.178;11.716;2022-07-11T15:41:22;1.52;;;0.50;;
26163;SDS011;13914;48.178;11.716;2022-07-11T15:43:48;2.05;;;0.65;;
26163;SDS011;13914;48.178;11.716;2022-07-11T15:46:14;0.85;;;0.30;;
26163;SDS011;13914;48.178;11.716;2022-07-11T15:48:40;1.30;;;0.40;;
26163;SDS011;13914;48.178;11.716;2022-07-11T15:51:06;4.38;;;0.50;;
26163;SDS011;13914;48.178;11.716;2022-07-11T15:53:32;3.05;;;0.40;;
26163;SDS011;13914;48.178;11.716;2022-07-11T15:55:59;1.20;;;0.60;;
26163;SDS011;13914;48.178;11.716;2022-07-11T15:58:28;3.88;;;0.30;;
26163;SDS011;13914;48.178;11.716;2022-07-11T16:00:53;3.47;;;0.63;;
26163;SDS011;13914;48.178;11.716;2022-07-11T16:03:19;1.42;;;0.40;;